Time;durP1;ratioP1;P1;durP2;ratioP2;P2;SDS_P1;SDS_P2;PMS_P1;PMS_P2;Temp;Humidity;BMP_temperature;BMP_pressure;BME280_temperature;BME280_humidity;BME280_pressure;Samples;Min_cycle;Max_cycle;Signal;HPM_P1;HPM_P2
2023/02/09 00:00:49;;;;;;;45.80;25.98;;;;;;;-4.04;58.24;96643.88;4209438;28;20113;-53
2023/02/09 00:02:50;;;;;;;49.38;26.05;;;;;;;-4.03;58.64;96641.31;4207551;28;20055;-56
2023/02/09 00:04:52;;;;;;;49.10;26.73;;;;;;;-4.12;58.41;96633.75;4207356;28;20068;-54
2023/02/09 00:06:54;;;;;;;51.33;26.20;;;;;;;-4.09;59.01;96635.44;4205691;28;20451;-55
2023/02/09 00:08:57;;;;;;;47.05;25.65;;;;;;;-4.08;58.38;96632.00;4209363;28;20523;-55
2023/02/09 00:10:58;;;;;;;47.78;26.25;;;;;;;-4.06;59.00;96632.84;4205283;28;20556;-52
2023/02/09 00:15:20;;;;;;;50.88;28.15;;;;;;;-4.06;58.98;96631.13;4200887;28;20098;-52
2023/02/09 00:17:22;;;;;;;53.83;27.50;;;;;;;-4.04;58.67;96631.06;4207562;28;20048;-57
2023/02/09 00:19:24;;;;;;;48.60;27.52;;;;;;;-4.03;59.08;96627.66;4211080;28;20055;-54
2023/02/09 00:21:26;;;;;;;43.70;24.05;;;;;;;-4.03;58.98;96625.94;4211286;28;20067;-56
2023/02/09 00:23:29;;;;;;;45.58;23.90;;;;;;;-4.01;58.45;96625.91;4211904;28;20134;-58
2023/02/09 00:25:31;;;;;;;49.20;25.75;;;;;;;-4.04;58.15;96628.50;4211243;28;20051;-54
2023/02/09 00:27:34;;;;;;;46.17;26.88;;;;;;;-4.10;58.16;96631.19;4199607;28;20044;-57
2023/02/09 00:29:36;;;;;;;47.65;25.75;;;;;;;-4.12;59.18;96626.94;4200405;28;20050;-54
2023/02/09 00:31:38;;;;;;;43.92;23.45;;;;;;;-4.14;58.73;96615.88;4212059;28;20401;-54
2023/02/09 00:33:40;;;;;;;47.47;25.08;;;;;;;-4.15;58.63;96621.88;4212983;28;20098;-57
2023/02/09 00:35:42;;;;;;;39.90;22.50;;;;;;;-4.13;58.36;96624.38;4210568;28;20723;-57
2023/02/09 00:37:44;;;;;;;38.92;22.88;;;;;;;-4.14;58.35;96623.53;4201193;28;20040;-56
2023/02/09 00:39:46;;;;;;;38.83;22.38;;;;;;;-4.12;58.57;96613.28;4212629;28;20076;-56
2023/02/09 00:42:05;;;;;;;44.97;24.58;;;;;;;-4.14;58.53;96613.31;4212340;28;20409;-53
2023/02/09 00:44:10;;;;;;;43.97;23.25;;;;;;;-4.15;58.49;96615.88;4200918;28;20489;-53
2023/02/09 00:46:12;;;;;;;43.67;24.08;;;;;;;-4.18;58.00;96614.22;4211995;28;20117;-52
2023/02/09 00:48:14;;;;;;;43.47;23.73;;;;;;;-4.23;58.11;96613.44;4212823;28;20101;-51
2023/02/09 00:50:15;;;;;;;45.60;25.08;;;;;;;-4.29;58.48;96608.41;4212631;28;20044;-55
2023/02/09 00:52:17;;;;;;;42.05;23.65;;;;;;;-4.26;58.86;96608.34;4212023;28;20087;-53
2023/02/09 00:54:19;;;;;;;39.10;21.77;;;;;;;-4.27;59.43;96605.84;4197873;28;20532;-51
2023/02/09 00:56:20;;;;;;;40.45;22.20;;;;;;;-4.36;59.85;96597.44;4194915;28;20194;-54
2023/02/09 00:58:22;;;;;;;42.97;22.50;;;;;;;-4.34;60.16;96598.25;4195315;28;20503;-53
2023/02/09 01:00:25;;;;;;;40.58;23.05;;;;;;;-4.28;60.16;96589.66;4194935;28;20067;-53
2023/02/09 01:02:26;;;;;;;39.72;23.23;;;;;;;-4.30;59.34;96585.41;4208298;28;20052;-56
2023/02/09 01:04:28;;;;;;;40.90;21.48;;;;;;;-4.27;59.36;96587.94;4208973;28;20086;-53
2023/02/09 01:06:30;;;;;;;41.08;21.75;;;;;;;-4.25;59.75;96589.59;4201153;28;20074;-53
2023/02/09 01:08:32;;;;;;;35.42;21.58;;;;;;;-4.31;59.57;96589.69;4202630;28;20052;-56
2023/02/09 01:10:34;;;;;;;38.05;21.23;;;;;;;-4.40;59.57;96589.81;4194316;28;20106;-55
2023/02/09 01:12:38;;;;;;;43.63;24.17;;;;;;;-4.71;59.76;96586.84;4197996;28;20056;-52
2023/02/09 01:14:40;;;;;;;41.40;26.48;;;;;;;-5.41;61.56;96585.13;4204988;28;20052;-57
2023/02/09 01:16:42;;;;;;;48.78;27.30;;;;;;;-5.66;63.39;96592.16;4194368;28;20098;-55
2023/02/09 01:18:44;;;;;;;42.97;25.48;;;;;;;-5.76;63.72;96588.88;4195179;28;20140;-55
2023/02/09 01:20:46;;;;;;;45.75;27.63;;;;;;;-5.72;64.34;96581.16;4198956;28;20048;-54
2023/02/09 01:22:49;;;;;;;49.25;27.55;;;;;;;-5.71;64.68;96582.88;4204812;28;20044;-52
2023/02/09 01:24:50;;;;;;;49.70;28.05;;;;;;;-5.70;64.46;96584.56;4198049;28;20090;-50
2023/02/09 01:26:52;;;;;;;46.90;27.50;;;;;;;-5.54;64.67;96575.06;4209219;28;20048;-55
2023/02/09 01:28:54;;;;;;;46.38;27.55;;;;;;;-5.35;63.87;96567.16;4211463;28;20073;-54
2023/02/09 01:30:56;;;;;;;46.17;27.08;;;;;;;-5.25;62.84;96577.28;4206009;28;20328;-51
2023/02/09 01:32:58;;;;;;;45.33;26.83;;;;;;;-5.13;62.91;96569.47;4208079;28;20040;-52
2023/02/09 01:34:59;;;;;;;44.33;27.02;;;;;;;-5.01;62.49;96569.34;4211851;28;20048;-53
2023/02/09 01:37:01;;;;;;;44.20;26.67;;;;;;;-4.87;61.97;96574.25;4207345;28;20044;-55
2023/02/09 01:39:03;;;;;;;44.97;26.55;;;;;;;-4.82;61.18;96580.19;4207343;28;20045;-55
2023/02/09 01:41:05;;;;;;;43.88;26.13;;;;;;;-4.80;60.89;96572.47;4194998;28;20048;-54
2023/02/09 01:43:10;;;;;;;42.30;23.80;;;;;;;-4.76;60.53;96569.00;4194913;28;20055;-55
2023/02/09 01:45:37;;;;;;;40.13;24.70;;;;;;;-4.77;60.72;96565.59;4208695;28;20071;-53
2023/02/09 01:47:47;;;;;;;43.13;25.20;;;;;;;-4.83;60.49;96568.25;4206656;28;20052;-53
2023/02/09 01:49:50;;;;;;;44.40;26.17;;;;;;;-4.82;60.48;96567.38;4177781;28;20053;-57
2023/02/09 01:52:14;;;;;;;39.40;24.73;;;;;;;-4.84;60.75;96568.25;4193267;28;20417;-53
2023/02/09 01:54:21;;;;;;;47.92;26.40;;;;;;;-4.85;60.49;96571.69;4204903;28;20048;-53
2023/02/09 01:56:28;;;;;;;44.33;25.95;;;;;;;-4.84;60.68;96561.44;4211618;28;20063;-54
2023/02/09 01:58:30;;;;;;;46.17;27.20;;;;;;;-4.76;60.56;96562.16;4204460;28;20048;-55
2023/02/09 02:00:32;;;;;;;50.95;29.10;;;;;;;-4.74;61.10;96564.72;4202404;28;20075;-54
2023/02/09 02:02:34;;;;;;;48.17;26.40;;;;;;;-4.74;60.64;96565.56;4198418;28;20534;-54
2023/02/09 02:04:36;;;;;;;41.08;24.25;;;;;;;-4.72;60.95;96557.88;4209424;28;20066;-56
2023/02/09 02:06:39;;;;;;;40.70;25.38;;;;;;;-4.70;61.03;96560.41;4204165;28;20071;-55
2023/02/09 02:08:47;;;;;;;30.27;19.02;;;;;;;-4.68;60.65;96556.13;4214621;28;20058;-54
2023/02/09 02:10:49;;;;;;;33.22;17.27;;;;;;;-4.65;59.95;96559.47;4197926;28;20064;-55
2023/02/09 02:12:53;;;;;;;26.20;16.05;;;;;;;-4.68;59.61;96551.84;4213318;28;20417;-56
2023/02/09 02:14:54;;;;;;;25.95;15.73;;;;;;;-4.66;59.13;96552.66;4214796;28;20052;-55
2023/02/09 02:17:22;;;;;;;28.00;15.30;;;;;;;-4.77;58.98;96551.97;4201076;28;20048;-55
2023/02/09 02:19:48;;;;;;;26.73;15.85;;;;;;;-4.85;59.47;96548.69;4203460;28;20040;-54
2023/02/09 02:22:13;;;;;;;27.08;14.52;;;;;;;-4.87;59.02;96547.84;4201317;28;20106;-51
2023/02/09 02:24:24;;;;;;;;;;;;;;;-5.22;59.38;96549.16;4195830;28;20121;-55
2023/02/09 02:26:41;;;;;;;25.25;15.38;;;;;;;-5.46;59.57;96546.03;4213100;28;19924;-54
2023/02/09 02:29:00;;;;;;;22.30;14.13;;;;;;;-5.46;60.43;96552.81;4213732;28;20397;-54
2023/02/09 02:31:27;;;;;;;23.88;13.73;;;;;;;-5.57;60.65;96550.38;4212460;28;20582;-54
2023/02/09 02:33:38;;;;;;;23.15;14.23;;;;;;;-5.63;60.53;96553.03;4202943;28;20040;-53
2023/02/09 02:35:46;;;;;;;22.05;13.18;;;;;;;-5.52;60.39;96546.09;4202768;28;20189;-52
2023/02/09 02:38:01;;;;;;;19.90;11.77;;;;;;;-5.47;59.92;96551.97;4196245;28;20131;-57
2023/02/09 02:40:09;;;;;;;20.77;12.20;;;;;;;-5.52;59.77;96545.25;4210999;28;20047;-55
2023/02/09 02:42:50;;;;;;;17.27;10.93;;;;;;;-5.44;59.75;96539.19;4212554;28;20086;-60
2023/02/09 02:45:00;;;;;;;15.90;9.43;;;;;;;-5.53;59.47;96533.31;4196305;28;20037;-61
2023/02/09 02:47:05;;;;;;;17.17;10.70;;;;;;;-5.51;59.76;96529.03;4205083;28;20083;-60
2023/02/09 02:49:15;;;;;;;18.15;11.20;;;;;;;-5.43;59.17;96538.31;4204633;28;20079;-61
2023/02/09 02:51:30;;;;;;;17.40;10.60;;;;;;;-5.40;58.80;96532.31;4198201;28;20372;-61
2023/02/09 02:53:34;;;;;;;16.95;11.05;;;;;;;-5.35;58.66;96526.31;4214272;28;20093;-60
2023/02/09 02:55:37;;;;;;;15.68;9.95;;;;;;;-5.31;58.38;96531.34;4203983;28;20379;-63
2023/02/09 02:57:42;;;;;;;20.30;10.00;;;;;;;-5.32;58.23;96522.84;4210286;28;20528;-59
2023/02/09 02:59:51;;;;;;;15.45;9.50;;;;;;;-5.33;58.55;96522.88;4212741;28;20071;-59
2023/02/09 03:01:57;;;;;;;15.75;9.75;;;;;;;-5.28;58.95;96527.06;4204830;28;20048;-60
2023/02/09 03:04:00;;;;;;;17.17;9.50;;;;;;;-5.29;58.08;96516.84;4208671;28;20102;-61
2023/02/09 03:06:04;;;;;;;16.08;9.57;;;;;;;-5.26;58.20;96529.63;4211949;28;20071;-62
2023/02/09 03:08:06;;;;;;;15.15;10.00;;;;;;;-5.25;57.81;96526.19;4200789;28;20079;-60
2023/02/09 03:10:29;;;;;;;15.75;10.05;;;;;;;-5.25;58.20;96527.03;4197586;28;20048;-61
2023/02/09 03:12:36;;;;;;;16.00;9.85;;;;;;;-5.28;58.15;96523.69;4197185;28;20655;-59
2023/02/09 03:14:55;;;;;;;18.55;9.88;;;;;;;-5.26;58.33;96520.22;4210468;28;20040;-60
2023/02/09 03:17:11;;;;;;;15.63;10.30;;;;;;;-5.21;58.28;96521.00;4206957;28;20049;-60
2023/02/09 03:19:15;;;;;;;16.48;9.70;;;;;;;-5.46;58.26;96528.13;4207112;28;20633;-60
2023/02/09 03:21:36;;;;;;;14.57;9.23;;;;;;;-5.66;58.47;96514.72;4213402;28;20064;-59
2023/02/09 03:23:47;;;;;;;15.23;8.63;;;;;;;-5.63;58.88;96519.81;4212886;28;20044;-60
2023/02/09 03:25:51;;;;;;;14.98;9.50;;;;;;;-5.50;59.61;96525.66;4213591;28;20056;-60
2023/02/09 03:27:56;;;;;;;15.55;10.10;;;;;;;-5.39;58.98;96522.09;4212116;28;20044;-59
2023/02/09 03:29:59;;;;;;;15.50;9.45;;;;;;;-5.30;58.77;96518.56;4213452;28;20059;-59
2023/02/09 03:32:01;;;;;;;17.33;9.77;;;;;;;-5.21;58.52;96513.34;4199707;28;20130;-60
2023/02/09 03:34:04;;;;;;;15.50;10.00;;;;;;;-5.19;58.30;96515.88;4210798;28;20097;-59
2023/02/09 03:36:11;;;;;;;14.15;9.35;;;;;;;-5.26;58.10;96519.41;4216270;28;20063;-60
2023/02/09 03:38:13;;;;;;;13.35;9.50;;;;;;;-5.24;58.17;96520.22;4197396;28;20056;-61
2023/02/09 03:42:35;;;;;;;17.30;10.75;;;;;;;-5.17;57.99;96512.44;4211679;28;20101;-60
2023/02/09 03:44:37;;;;;;;24.95;15.30;;;;;;;-5.15;58.42;96513.25;4201808;28;20056;-61
2023/02/09 03:46:38;;;;;;;25.42;15.52;;;;;;;-5.10;58.01;96513.19;4212015;28;20080;-61
2023/02/09 03:48:40;;;;;;;31.08;19.13;;;;;;;-5.19;58.81;96508.22;4213357;28;20448;-60
2023/02/09 03:50:42;;;;;;;35.72;20.67;;;;;;;-5.22;59.42;96509.09;4211799;28;20116;-61
2023/02/09 03:52:44;;;;;;;38.53;21.95;;;;;;;-5.18;59.84;96508.22;4213444;28;20127;-63
2023/02/09 03:54:46;;;;;;;34.90;22.33;;;;;;;-5.26;60.11;96509.19;4213001;28;20078;-62
2023/02/09 03:56:48;;;;;;;35.70;19.90;;;;;;;-5.47;60.22;96513.66;4212456;28;20048;-60
2023/02/09 03:58:50;;;;;;;40.25;22.25;;;;;;;-5.58;59.99;96503.56;4213345;28;20495;-59
2023/02/09 04:00:52;;;;;;;34.17;19.80;;;;;;;-5.76;60.97;96517.41;4211724;28;20097;-60
2023/02/09 04:02:55;;;;;;;32.65;19.50;;;;;;;-5.73;61.81;96519.06;4212215;28;20075;-59
2023/02/09 04:04:56;;;;;;;32.28;20.10;;;;;;;-5.69;61.06;96514.78;4210884;28;20093;-57
2023/02/09 04:06:58;;;;;;;39.30;22.92;;;;;;;-5.72;61.37;96512.25;4210835;28;20328;-61
2023/02/09 04:09:01;;;;;;;38.70;23.48;;;;;;;-5.74;61.00;96513.97;4211990;28;20281;-60
2023/02/09 04:11:03;;;;;;;40.67;24.42;;;;;;;-5.72;61.66;96519.91;4212808;28;20466;-61
2023/02/09 04:13:04;;;;;;;40.78;23.35;;;;;;;-5.67;61.22;96507.94;4211985;28;20078;-61
2023/02/09 04:15:06;;;;;;;37.05;23.88;;;;;;;-5.63;61.12;96512.16;4211962;28;20048;-56
2023/02/09 04:17:08;;;;;;;42.08;24.80;;;;;;;-5.59;60.92;96511.28;4210766;28;20055;-53
2023/02/09 04:19:11;;;;;;;42.95;26.92;;;;;;;-5.52;61.24;96514.59;4212634;28;20047;-53
2023/02/09 04:21:13;;;;;;;47.17;27.20;;;;;;;-5.47;61.11;96510.28;4211588;28;20052;-54
2023/02/09 04:23:14;;;;;;;42.47;24.75;;;;;;;-5.39;61.40;96509.31;4212861;28;20048;-55
2023/02/09 04:25:16;;;;;;;38.60;23.17;;;;;;;-5.30;60.46;96508.34;4212781;28;20440;-55
2023/02/09 04:27:18;;;;;;;40.80;24.38;;;;;;;-5.24;60.51;96510.00;4211445;28;20048;-55
2023/02/09 04:29:19;;;;;;;60.97;35.60;;;;;;;-5.25;60.54;96508.28;4209106;28;20055;-54
2023/02/09 04:31:21;;;;;;;35.70;21.98;;;;;;;-5.22;60.39;96509.09;4210425;28;20125;-55
2023/02/09 04:33:24;;;;;;;30.55;18.58;;;;;;;-5.13;59.91;96507.31;4211034;28;20067;-53
2023/02/09 04:35:25;;;;;;;38.42;21.42;;;;;;;-5.20;59.92;96504.00;4210498;28;20043;-56
2023/02/09 04:37:27;;;;;;;35.38;20.50;;;;;;;-5.16;60.04;96513.31;4210771;28;20477;-55
2023/02/09 04:39:29;;;;;;;33.92;21.20;;;;;;;-5.10;60.29;96505.53;4204924;28;20541;-55
2023/02/09 04:41:30;;;;;;;35.75;19.55;;;;;;;-5.06;60.14;96509.75;4212278;28;20040;-54
2023/02/09 04:43:32;;;;;;;32.90;21.63;;;;;;;-5.08;60.33;96508.91;4212257;28;20074;-53
2023/02/09 04:45:37;;;;;;;31.13;18.00;;;;;;;-5.06;60.29;96508.91;4211259;28;20139;-52
2023/02/09 04:47:38;;;;;;;22.90;13.65;;;;;;;-5.21;59.72;96512.50;4195822;28;20048;-52
2023/02/09 04:49:41;;;;;;;30.70;17.35;;;;;;;-5.29;59.19;96514.31;4185309;28;20052;-57
2023/02/09 04:51:43;;;;;;;28.65;16.80;;;;;;;-5.29;60.13;96504.09;4211880;28;20074;-51
2023/02/09 04:53:44;;;;;;;22.25;14.18;;;;;;;-5.24;60.92;96504.91;4196616;28;20131;-54
2023/02/09 04:55:46;;;;;;;17.20;11.77;;;;;;;-5.37;59.21;96512.69;4195777;28;20040;-56
2023/02/09 05:00:09;;;;;;;19.15;10.63;;;;;;;-5.81;59.06;96514.06;4212009;28;20043;-53
2023/02/09 05:02:11;;;;;;;16.45;11.52;;;;;;;-6.01;59.36;96515.97;4207620;28;20106;-55
2023/02/09 05:04:12;;;;;;;16.48;10.20;;;;;;;-6.01;59.83;96519.38;4204000;28;20059;-60
2023/02/09 05:06:14;;;;;;;18.20;10.65;;;;;;;-5.93;60.12;96516.72;4200966;28;20505;-59
2023/02/09 05:08:16;;;;;;;17.25;10.57;;;;;;;-5.88;59.80;96509.00;4196432;28;20052;-59
2023/02/09 05:10:18;;;;;;;16.75;10.57;;;;;;;-5.84;60.05;96510.69;4200695;28;20424;-56
2023/02/09 05:12:19;;;;;;;17.63;11.48;;;;;;;-5.74;60.15;96512.28;4211798;28;20379;-55
2023/02/09 05:14:21;;;;;;;17.42;11.00;;;;;;;-5.62;59.60;96513.84;4212559;28;20064;-56
2023/02/09 05:16:22;;;;;;;20.17;11.85;;;;;;;-5.51;58.86;96517.13;4211489;28;20052;-55
2023/02/09 05:18:24;;;;;;;18.77;11.68;;;;;;;-5.44;58.87;96525.53;4212651;28;20048;-54
2023/02/09 05:20:26;;;;;;;19.08;11.48;;;;;;;-5.39;59.39;96524.63;4198996;28;20060;-55
2023/02/09 05:22:28;;;;;;;18.25;11.02;;;;;;;-5.35;58.49;96522.91;4211721;28;20524;-54
2023/02/09 05:24:29;;;;;;;16.77;10.02;;;;;;;-5.29;58.43;96517.72;4204551;28;20048;-56
2023/02/09 05:26:31;;;;;;;18.38;10.73;;;;;;;-5.27;57.59;96513.44;4195931;28;20052;-56
2023/02/09 05:28:33;;;;;;;19.10;11.13;;;;;;;-5.30;57.46;96510.91;4196713;28;20063;-58
2023/02/09 05:30:34;;;;;;;20.88;13.00;;;;;;;-5.31;57.86;96511.78;4210064;28;20086;-56
2023/02/09 05:32:36;;;;;;;17.75;11.38;;;;;;;-5.29;58.28;96514.31;4209354;28;20397;-57
2023/02/09 05:34:37;;;;;;;18.10;11.82;;;;;;;-5.26;58.76;96525.34;4200849;28;20060;-57
2023/02/09 05:36:39;;;;;;;25.85;14.27;;;;;;;-5.26;58.85;96519.41;4199313;28;20072;-58
2023/02/09 05:38:41;;;;;;;24.42;15.57;;;;;;;-5.22;58.26;96516.78;4196387;28;20053;-56
2023/02/09 05:40:42;;;;;;;24.10;15.32;;;;;;;-5.15;59.00;96512.44;4211537;28;20447;-56
2023/02/09 05:42:45;;;;;;;24.60;13.63;;;;;;;-5.11;58.63;96519.19;4196684;28;20044;-56
2023/02/09 05:44:49;;;;;;;21.67;12.32;;;;;;;-5.05;58.19;96523.41;4205857;28;20338;-56
2023/02/09 05:46:50;;;;;;;21.90;12.77;;;;;;;-5.08;58.83;96531.09;4215067;28;20591;-61
2023/02/09 05:48:52;;;;;;;21.40;12.35;;;;;;;-5.02;58.79;96536.13;4215487;28;20048;-61
2023/02/09 05:50:53;;;;;;;23.17;13.65;;;;;;;-4.92;58.89;96531.75;4211482;28;20102;-59
2023/02/09 05:52:58;;;;;;;21.13;13.48;;;;;;;-4.85;58.64;96535.91;4198907;28;20045;-58
2023/02/09 05:55:00;;;;;;;20.67;13.82;;;;;;;-4.84;58.78;96535.00;4210252;28;20083;-57
2023/02/09 05:57:02;;;;;;;23.95;13.93;;;;;;;-4.83;58.81;96532.44;4201022;28;20096;-57
2023/02/09 05:59:04;;;;;;;20.50;13.02;;;;;;;-4.76;58.88;96533.19;4215205;28;20056;-56
2023/02/09 06:01:05;;;;;;;24.13;14.23;;;;;;;-4.72;58.87;96531.47;4213833;28;20052;-56
2023/02/09 06:03:07;;;;;;;28.85;15.68;;;;;;;-4.72;58.28;96532.28;4202841;28;20079;-54
2023/02/09 06:05:09;;;;;;;36.55;19.40;;;;;;;-4.73;59.15;96530.63;4208487;28;20044;-57
2023/02/09 06:07:10;;;;;;;37.22;21.02;;;;;;;-4.77;59.29;96534.09;4203274;28;20131;-57
2023/02/09 06:09:12;;;;;;;35.35;21.00;;;;;;;-4.72;59.52;96536.56;4205118;28;20074;-58
2023/02/09 06:11:14;;;;;;;39.28;20.83;;;;;;;-4.71;59.40;96523.78;4198637;28;20117;-55
2023/02/09 06:13:15;;;;;;;32.15;18.63;;;;;;;-4.63;59.93;96523.66;4200942;28;20131;-61
2023/02/09 06:15:17;;;;;;;35.83;18.83;;;;;;;-4.60;59.41;96527.00;4215331;28;20055;-60
2023/02/09 06:17:19;;;;;;;35.47;19.60;;;;;;;-4.55;59.51;96522.66;4214125;28;20477;-55
2023/02/09 06:19:21;;;;;;;32.67;18.40;;;;;;;-4.51;59.36;96515.78;4209571;28;20514;-59
2023/02/09 06:21:22;;;;;;;41.47;22.77;;;;;;;-4.42;60.21;96512.25;4206387;28;20059;-56
2023/02/09 06:23:24;;;;;;;30.17;18.40;;;;;;;-4.30;58.44;96506.06;4202966;28;20052;-57
2023/02/09 06:25:26;;;;;;;33.90;17.95;;;;;;;-4.36;58.41;96502.75;4198311;28;20083;-55
2023/02/09 06:27:27;;;;;;;27.30;15.65;;;;;;;-4.30;58.05;96509.50;4202909;28;20463;-57
2023/02/09 06:29:30;;;;;;;24.17;15.82;;;;;;;-4.26;58.85;96511.13;4206154;28;20794;-58
2023/02/09 06:31:32;;;;;;;20.00;12.32;;;;;;;-4.20;57.62;96512.75;4211495;28;20052;-56
2023/02/09 06:33:35;;;;;;;17.65;10.85;;;;;;;-4.13;56.31;96511.75;4210923;28;20044;-58
2023/02/09 06:35:37;;;;;;;18.30;9.80;;;;;;;-4.09;55.13;96520.25;4204837;28;20093;-58
2023/02/09 06:37:39;;;;;;;16.83;8.93;;;;;;;-4.13;54.79;96516.88;4204935;28;20050;-58
2023/02/09 06:39:40;;;;;;;17.77;9.43;;;;;;;-4.18;54.83;96506.72;4201298;28;20398;-55
2023/02/09 06:41:42;;;;;;;18.15;9.90;;;;;;;-4.27;55.02;96504.31;4205610;28;20054;-56
2023/02/09 06:43:44;;;;;;;18.85;10.10;;;;;;;-4.25;55.63;96504.31;4214679;28;20109;-63
2023/02/09 06:45:45;;;;;;;17.65;10.25;;;;;;;-4.20;54.91;96502.50;4213389;28;20048;-62
2023/02/09 06:47:47;;;;;;;17.92;9.57;;;;;;;-4.16;55.05;96507.53;4202254;28;20135;-63
2023/02/09 06:49:49;;;;;;;15.93;9.27;;;;;;;-4.20;54.59;96499.94;4206146;28;20044;-61
2023/02/09 06:51:50;;;;;;;15.52;9.27;;;;;;;-4.39;54.82;96494.28;4196738;28;20624;-64
2023/02/09 06:53:52;;;;;;;15.88;8.88;;;;;;;-4.37;55.11;96492.53;4197930;28;20056;-63
2023/02/09 06:56:00;;;;;;;17.15;9.15;;;;;;;-4.36;54.69;96492.53;4198165;28;20120;-63
2023/02/09 06:58:02;;;;;;;16.42;9.98;;;;;;;-4.34;55.13;96492.50;4207340;28;20044;-62
2023/02/09 07:00:07;;;;;;;19.98;9.65;;;;;;;-4.34;54.74;96493.34;4200706;28;20091;-62
2023/02/09 07:02:09;;;;;;;23.58;10.07;;;;;;;-4.36;54.82;96494.25;4213632;28;20047;-61
2023/02/09 07:04:11;;;;;;;21.92;11.70;;;;;;;-4.22;54.84;96488.88;4214502;28;20076;-61
2023/02/09 07:06:15;;;;;;;18.55;9.35;;;;;;;-4.07;54.83;96490.34;4214038;28;20044;-62
2023/02/09 07:08:17;;;;;;;21.05;9.82;;;;;;;-3.89;54.55;96484.91;4214047;28;20048;-61
2023/02/09 07:10:18;;;;;;;19.50;9.48;;;;;;;-3.72;53.59;96489.72;4214142;28;20054;-64
2023/02/09 07:12:20;;;;;;;16.98;8.85;;;;;;;-3.96;53.04;96479.06;4212232;28;20056;-62
2023/02/09 07:14:22;;;;;;;21.02;8.98;;;;;;;-3.91;53.57;96481.53;4214464;28;20052;-63
2023/02/09 07:16:23;;;;;;;17.02;8.95;;;;;;;-4.26;54.64;96485.53;4212965;28;20130;-62
2023/02/09 07:18:26;;;;;;;17.13;9.13;;;;;;;-4.34;55.04;96493.34;4212910;28;20044;-62
2023/02/09 07:20:28;;;;;;;17.33;8.73;;;;;;;-4.49;55.20;96492.75;4213390;28;20143;-61
2023/02/09 07:22:29;;;;;;;17.08;8.55;;;;;;;-4.47;54.93;96491.00;4210022;28;20448;-61
2023/02/09 07:24:31;;;;;;;18.58;10.10;;;;;;;-4.32;55.23;96495.88;4206165;28;20052;-63
2023/02/09 07:26:33;;;;;;;18.00;9.35;;;;;;;-4.41;54.50;96485.78;4202534;28;20052;-64
2023/02/09 07:28:35;;;;;;;16.63;8.88;;;;;;;-4.29;55.24;96480.47;4207012;28;20110;-63
2023/02/09 07:30:39;;;;;;;14.13;8.60;;;;;;;-4.23;54.45;96482.94;4213849;28;20579;-63
2023/02/09 07:32:41;;;;;;;18.67;8.35;;;;;;;-4.29;54.37;96482.19;4212712;28;20052;-63
2023/02/09 07:34:43;;;;;;;12.52;6.82;;;;;;;-4.26;53.87;96484.69;4214262;28;20448;-62
2023/02/09 07:36:45;;;;;;;11.55;6.63;;;;;;;-4.04;53.70;96480.91;4212970;28;20051;-62
2023/02/09 07:38:48;;;;;;;12.85;6.65;;;;;;;-3.91;53.07;96481.53;4209279;28;20049;-61
2023/02/09 07:40:50;;;;;;;17.98;7.72;;;;;;;-3.97;53.04;96474.78;4210627;28;20052;-62
2023/02/09 07:42:52;;;;;;;13.40;7.50;;;;;;;-4.02;52.72;96465.50;4213383;28;20047;-63
2023/02/09 07:44:53;;;;;;;19.85;7.88;;;;;;;-3.84;52.57;96475.41;4213954;28;20051;-61
2023/02/09 07:46:55;;;;;;;16.48;7.90;;;;;;;-3.69;52.25;96470.88;4213392;28;20052;-63
2023/02/09 07:48:57;;;;;;;23.05;9.30;;;;;;;-3.52;51.95;96469.69;4196958;28;20052;-61
2023/02/09 07:51:02;;;;;;;16.92;8.48;;;;;;;-3.58;51.82;96468.94;4212799;28;20474;-62
2023/02/09 07:53:04;;;;;;;24.33;9.00;;;;;;;-4.01;52.27;96455.25;4213737;28;20478;-62
2023/02/09 07:55:06;;;;;;;20.27;8.40;;;;;;;-4.12;53.20;96457.16;4213044;28;20101;-64
2023/02/09 07:57:07;;;;;;;27.65;11.32;;;;;;;-4.05;53.79;96457.88;4212741;28;20162;-61
2023/02/09 07:59:10;;;;;;;31.40;12.98;;;;;;;-3.98;53.92;96452.63;4212766;28;20101;-55
2023/02/09 08:01:13;;;;;;;19.27;9.57;;;;;;;-3.79;53.57;96459.97;4212697;28;20048;-56
2023/02/09 08:03:17;;;;;;;19.17;8.77;;;;;;;-3.51;52.66;96455.13;4211708;28;20048;-53
2023/02/09 08:05:27;;;;;;;17.15;8.18;;;;;;;-3.25;52.00;96462.28;4208118;28;20049;-53
2023/02/09 08:07:29;;;;;;;19.45;8.27;;;;;;;-2.98;51.17;96470.28;4211219;28;20105;-58
2023/02/09 08:09:30;;;;;;;14.07;7.70;;;;;;;-2.84;50.50;96464.84;4211308;28;20044;-57
2023/02/09 08:11:43;;;;;;;18.65;7.50;;;;;;;-2.58;50.16;96467.66;4212310;28;20059;-54
2023/02/09 08:13:46;;;;;;;10.82;6.22;;;;;;;-2.66;49.71;96461.84;4212298;28;20198;-58
2023/02/09 08:15:53;;;;;;;14.75;6.82;;;;;;;-2.51;49.87;96456.34;4211121;28;20107;-55
2023/02/09 08:17:56;;;;;;;11.75;6.55;;;;;;;-2.28;50.01;96462.63;4211362;28;20680;-60
2023/02/09 08:20:02;;;;;;;12.88;6.97;;;;;;;-2.00;49.56;96459.38;4202247;28;20501;-61
2023/02/09 08:22:03;;;;;;;12.27;5.82;;;;;;;-1.88;48.49;96470.19;4210636;28;20521;-63
2023/02/09 08:24:06;;;;;;;9.98;5.95;;;;;;;-1.94;47.59;96466.94;4213392;28;20072;-63
2023/02/09 08:26:10;;;;;;;11.47;6.70;;;;;;;-1.83;48.17;96464.09;4210085;28;20404;-63
2023/02/09 08:28:12;;;;;;;15.60;6.35;;;;;;;-2.09;48.28;96468.16;4206913;28;20647;-61
2023/02/09 08:30:15;;;;;;;12.35;5.57;;;;;;;-2.39;48.25;96469.78;4206281;28;20063;-61
2023/02/09 08:32:17;;;;;;;9.02;5.70;;;;;;;-2.49;48.43;96464.88;4204385;28;20052;-61
2023/02/09 08:34:19;;;;;;;11.68;5.47;;;;;;;-2.23;48.25;96454.84;4206069;28;20043;-63
2023/02/09 08:36:20;;;;;;;11.27;5.97;;;;;;;-2.00;48.55;96449.09;4205924;28;20090;-62
2023/02/09 08:38:22;;;;;;;12.55;6.38;;;;;;;-1.89;47.29;96439.41;4198691;28;20052;-64
2023/02/09 08:40:24;;;;;;;12.13;5.85;;;;;;;-2.32;47.28;96449.06;4196959;28;20178;-62
2023/02/09 08:42:25;;;;;;;14.32;6.90;;;;;;;-2.34;48.72;96453.38;4208599;28;20167;-62
2023/02/09 08:44:27;;;;;;;9.23;5.85;;;;;;;-2.36;48.44;96455.16;4212633;28;20078;-59
2023/02/09 08:46:29;;;;;;;11.48;6.07;;;;;;;-2.11;48.18;96450.25;4212543;28;20040;-62
2023/02/09 08:48:32;;;;;;;10.82;5.75;;;;;;;-1.87;47.93;96453.91;4201410;28;20802;-63
2023/02/09 08:50:37;;;;;;;11.15;5.78;;;;;;;-1.61;47.31;96449.78;4210583;28;20050;-63
2023/02/09 08:52:39;;;;;;;17.13;6.20;;;;;;;-1.95;46.93;96455.81;4201316;28;20338;-64
2023/02/09 08:54:40;;;;;;;11.18;6.53;;;;;;;-2.21;47.61;96453.94;4202742;28;20055;-63
2023/02/09 08:56:43;;;;;;;10.52;6.35;;;;;;;-2.14;48.45;96455.44;4211211;28;20048;-64
2023/02/09 08:58:44;;;;;;;10.52;6.18;;;;;;;-2.16;48.12;96467.47;4198116;28;20052;-62
2023/02/09 09:00:46;;;;;;;12.68;6.00;;;;;;;-1.98;47.94;96460.19;4206675;28;20056;-61
2023/02/09 09:02:48;;;;;;;10.90;5.90;;;;;;;-2.44;48.81;96474.19;4195667;28;20054;-64
2023/02/09 09:04:49;;;;;;;13.73;6.57;;;;;;;-2.31;48.45;96468.69;4206561;28;20105;-61
2023/02/09 09:06:51;;;;;;;11.45;5.63;;;;;;;-1.90;48.16;96463.41;4211569;28;20052;-62
2023/02/09 09:08:52;;;;;;;11.98;6.50;;;;;;;-1.66;47.80;96469.59;4213121;28;20055;-63
2023/02/09 09:10:54;;;;;;;20.45;6.35;;;;;;;-1.35;47.25;96466.22;4212640;28;20052;-62
2023/02/09 09:12:57;;;;;;;11.25;6.00;;;;;;;-1.11;46.22;96474.94;4211637;28;20086;-56
2023/02/09 09:14:59;;;;;;;13.25;6.00;;;;;;;-1.16;46.00;96471.66;4211893;28;20393;-57
2023/02/09 09:17:01;;;;;;;11.18;5.60;;;;;;;-1.58;46.22;96474.56;4212107;28;20483;-54
2023/02/09 09:19:03;;;;;;;10.15;5.40;;;;;;;-1.59;46.24;96468.56;4209889;28;20428;-58
2023/02/09 09:21:05;;;;;;;8.68;5.00;;;;;;;-1.43;46.43;96475.88;4205308;28;20060;-57
2023/02/09 09:23:07;;;;;;;8.27;4.88;;;;;;;-1.25;45.88;96472.75;4212729;28;20127;-56
2023/02/09 09:25:09;;;;;;;10.18;5.43;;;;;;;-0.98;45.78;96476.28;4204157;28;20113;-55
2023/02/09 09:27:11;;;;;;;10.00;5.45;;;;;;;-0.61;45.38;96464.84;4211651;28;20072;-56
2023/02/09 09:29:12;;;;;;;8.38;5.07;;;;;;;-0.71;45.11;96466.03;4204155;28;20079;-60
2023/02/09 09:31:17;;;;;;;13.90;5.50;;;;;;;-0.68;44.97;96468.50;4212040;28;20502;-59
2023/02/09 09:33:19;;;;;;;11.48;5.47;;;;;;;-0.87;45.00;96463.09;4211733;28;20127;-58
2023/02/09 09:35:21;;;;;;;9.68;5.22;;;;;;;-0.57;45.33;96457.88;4211598;28;20131;-58
2023/02/09 09:37:24;;;;;;;11.25;4.60;;;;;;;-0.25;44.71;96456.84;4211933;28;20131;-56
2023/02/09 09:39:25;;;;;;;9.53;5.20;;;;;;;-0.70;44.45;96458.25;4209492;28;20044;-58